createdAt,value
2022-10-17T00:00:49.528Z,16.53
2022-10-17T00:03:16.910Z,16.42
2022-10-17T00:05:47.261Z,16.52
2022-10-17T00:08:17.352Z,16.65
2022-10-17T00:10:44.601Z,16.70
2022-10-17T00:13:12.489Z,16.68
2022-10-17T00:15:43.680Z,16.74
2022-10-17T00:18:10.484Z,16.73
2022-10-17T00:20:37.314Z,16.63
2022-10-17T00:23:04.109Z,16.60
2022-10-17T00:25:30.875Z,16.70
2022-10-17T00:27:57.657Z,16.80
2022-10-17T00:30:24.480Z,16.88
2022-10-17T00:32:51.304Z,16.74
2022-10-17T00:35:18.160Z,16.87
2022-10-17T00:37:44.958Z,16.89
2022-10-17T00:40:12.548Z,16.96
2022-10-17T00:42:39.514Z,16.95
2022-10-17T00:45:27.608Z,16.99
2022-10-17T00:48:05.640Z,16.95
2022-10-17T00:50:34.113Z,16.95
2022-10-17T00:53:04.272Z,16.92
2022-10-17T00:55:35.747Z,16.94
2022-10-17T00:58:04.867Z,16.92
2022-10-17T01:00:32.506Z,16.91
2022-10-17T01:02:59.708Z,16.96
2022-10-17T01:05:26.607Z,16.99
2022-10-17T01:07:54.178Z,16.94
2022-10-17T01:13:04.587Z,17.01
2022-10-17T01:16:15.017Z,17.00
2022-10-17T01:18:56.824Z,16.95
2022-10-17T01:21:56.954Z,16.77
2022-10-17T01:25:03.887Z,16.68
2022-10-17T01:27:50.890Z,16.50
2022-10-17T01:30:51.210Z,16.40
2022-10-17T01:33:33.011Z,16.19
2022-10-17T01:36:50.421Z,15.89
2022-10-17T01:39:34.436Z,15.39
2022-10-17T01:42:34.770Z,15.28
2022-10-17T01:45:21.605Z,15.15
2022-10-17T01:47:52.475Z,15.15
2022-10-17T01:50:32.606Z,15.16
2022-10-17T01:53:13.737Z,15.14
2022-10-17T01:55:43.882Z,15.22
2022-10-17T01:58:25.540Z,15.32
2022-10-17T02:00:53.918Z,15.34
2022-10-17T02:03:22.036Z,15.30
2022-10-17T02:05:49.307Z,15.22
2022-10-17T02:08:27.170Z,15.19
2022-10-17T02:11:04.069Z,15.23
2022-10-17T02:17:09.701Z,15.24
2022-10-17T02:19:57.723Z,15.25
2022-10-17T02:22:48.016Z,15.37
2022-10-17T02:25:42.894Z,15.39
2022-10-17T02:28:31.223Z,15.29
2022-10-17T02:31:08.153Z,15.29
2022-10-17T02:34:07.008Z,15.38
2022-10-17T02:36:40.314Z,15.37
2022-10-17T02:39:09.164Z,15.33
2022-10-17T02:41:38.355Z,15.34
2022-10-17T02:44:06.823Z,15.36
2022-10-17T02:46:35.539Z,15.30
2022-10-17T02:49:16.937Z,15.21
2022-10-17T02:52:02.796Z,15.14
2022-10-17T02:54:50.290Z,15.19
2022-10-17T02:57:27.513Z,15.16
2022-10-17T02:59:58.485Z,15.26
2022-10-17T03:02:25.389Z,15.38
2022-10-17T03:04:52.213Z,15.40
2022-10-17T03:07:19.079Z,15.29
2022-10-17T03:09:45.864Z,15.13
2022-10-17T03:12:12.632Z,15.06
2022-10-17T03:14:39.394Z,14.97
2022-10-17T03:17:06.168Z,14.98
2022-10-17T03:19:33.020Z,15.02
2022-10-17T03:21:59.800Z,15.01
2022-10-17T03:24:26.689Z,15.00
2022-10-17T03:26:53.456Z,14.89
2022-10-17T03:29:20.304Z,14.83
2022-10-17T03:31:47.115Z,14.72
2022-10-17T03:34:16.673Z,14.54
2022-10-17T03:36:43.632Z,14.48
2022-10-17T03:39:10.621Z,14.43
2022-10-17T03:41:37.381Z,14.42
2022-10-17T03:44:04.411Z,14.40
2022-10-17T03:46:31.211Z,14.29
2022-10-17T03:48:58.013Z,14.32
2022-10-17T03:51:24.912Z,14.38
2022-10-17T03:53:51.937Z,14.30
2022-10-17T03:56:22.549Z,14.40
2022-10-17T03:58:49.374Z,14.47
2022-10-17T04:01:18.377Z,14.47
2022-10-17T04:03:50.630Z,14.42
2022-10-17T04:06:17.922Z,14.41
2022-10-17T04:08:44.788Z,14.51
2022-10-17T04:11:16.653Z,14.55
2022-10-17T04:13:44.334Z,14.52
2022-10-17T04:16:18.126Z,14.61
2022-10-17T04:18:45.312Z,14.55
2022-10-17T04:21:13.099Z,14.50
2022-10-17T04:23:40.173Z,14.35
2022-10-17T04:26:07.279Z,14.17
2022-10-17T04:28:34.828Z,14.10
2022-10-17T04:31:12.404Z,14.00
2022-10-17T04:33:39.350Z,14.03
2022-10-17T04:36:12.986Z,13.99
2022-10-17T04:38:39.966Z,13.95
2022-10-17T04:41:11.554Z,13.89
2022-10-17T04:43:39.734Z,13.86
2022-10-17T04:46:13.625Z,13.79
2022-10-17T04:48:41.414Z,13.81
2022-10-17T04:51:13.737Z,13.58
2022-10-17T04:53:42.468Z,13.70
2022-10-17T04:56:16.111Z,13.54
2022-10-17T04:58:44.521Z,13.59
2022-10-17T05:01:17.962Z,13.48
2022-10-17T05:03:45.689Z,13.39
2022-10-17T05:06:16.337Z,13.37
2022-10-17T05:08:43.697Z,13.31
2022-10-17T05:11:23.607Z,13.23
2022-10-17T05:13:56.552Z,13.21
2022-10-17T05:16:24.595Z,13.17
2022-10-17T05:18:53.847Z,13.01
2022-10-17T05:21:22.222Z,12.97
2022-10-17T05:23:49.224Z,12.85
2022-10-17T05:26:16.477Z,12.80
2022-10-17T05:28:43.365Z,12.76
2022-10-17T05:31:11.817Z,12.74
2022-10-17T05:33:39.724Z,12.75
2022-10-17T05:36:07.785Z,12.96
2022-10-17T05:38:34.809Z,13.05
2022-10-17T05:41:04.300Z,13.11
2022-10-17T05:43:31.900Z,12.97
2022-10-17T05:45:58.705Z,12.83
2022-10-17T05:48:25.509Z,12.76
2022-10-17T05:51:08.847Z,12.68
2022-10-17T05:53:39.137Z,12.60
2022-10-17T05:56:08.825Z,12.60
2022-10-17T05:58:49.756Z,12.61
2022-10-17T06:01:17.900Z,12.64
2022-10-17T06:03:44.742Z,12.65
2022-10-17T06:06:13.714Z,12.66
2022-10-17T06:08:40.678Z,12.66
2022-10-17T06:11:10.117Z,12.59
2022-10-17T06:13:38.765Z,12.46
2022-10-17T06:16:06.725Z,12.52
2022-10-17T06:18:33.576Z,12.60
2022-10-17T06:21:10.154Z,12.63
2022-10-17T06:23:37.495Z,12.71
2022-10-17T06:26:06.489Z,12.69
2022-10-17T06:28:34.480Z,12.67
2022-10-17T06:31:10.594Z,12.67
2022-10-17T06:33:37.897Z,12.75
2022-10-17T06:36:06.995Z,12.92
2022-10-17T06:38:37.108Z,13.13
2022-10-17T06:41:16.304Z,13.28
2022-10-17T06:43:46.290Z,13.41
2022-10-17T06:46:19.077Z,13.50
2022-10-17T06:48:46.164Z,13.75
2022-10-17T06:51:13.161Z,14.15
2022-10-17T06:53:40.911Z,14.57
2022-10-17T06:56:08.926Z,14.86
2022-10-17T06:58:39.565Z,15.06
2022-10-17T07:01:12.385Z,15.64
2022-10-17T07:03:40.893Z,15.85
2022-10-17T07:06:08.655Z,16.15
2022-10-17T07:08:35.494Z,16.20
2022-10-17T07:11:15.900Z,16.81
2022-10-17T07:13:43.426Z,17.18
2022-10-17T07:16:11.015Z,17.47
2022-10-17T07:18:38.696Z,17.46
2022-10-17T07:21:06.032Z,17.75
2022-10-17T07:23:36.472Z,18.02
2022-10-17T07:26:10.877Z,18.25
2022-10-17T07:28:40.625Z,18.52
2022-10-17T07:31:12.066Z,18.78
2022-10-17T07:33:39.118Z,19.08
2022-10-17T07:36:06.697Z,19.52
2022-10-17T07:38:34.386Z,19.82
2022-10-17T07:41:04.780Z,20.13
2022-10-17T07:43:32.547Z,20.23
2022-10-17T07:46:01.898Z,20.66
2022-10-17T07:48:28.981Z,21.11
2022-10-17T07:50:55.821Z,21.76
2022-10-17T07:53:22.629Z,21.92
2022-10-17T07:55:49.681Z,22.04
2022-10-17T07:58:16.894Z,22.42
2022-10-17T08:00:43.859Z,22.55
2022-10-17T08:03:11.247Z,22.72
2022-10-17T08:05:38.032Z,22.49
2022-10-17T08:08:05.005Z,23.19
2022-10-17T08:10:31.944Z,23.60
2022-10-17T08:12:58.922Z,23.14
2022-10-17T08:15:29.437Z,23.18
2022-10-17T08:17:59.358Z,23.54
2022-10-17T08:20:26.852Z,23.07
2022-10-17T08:22:55.191Z,23.58
2022-10-17T08:25:22.573Z,22.67
2022-10-17T08:27:49.910Z,22.67
2022-10-17T08:30:17.546Z,23.59
2022-10-17T08:32:44.380Z,23.38
2022-10-17T08:35:11.773Z,22.54
2022-10-17T08:37:38.537Z,22.39
2022-10-17T08:40:06.365Z,22.79
2022-10-17T08:43:03.109Z,23.27
2022-10-17T08:45:56.988Z,23.84
2022-10-17T08:48:26.190Z,22.54
2022-10-17T08:50:59.738Z,23.51
2022-10-17T08:53:51.321Z,23.49
2022-10-17T08:56:25.115Z,22.92
2022-10-17T08:59:18.313Z,22.45
2022-10-17T09:01:54.504Z,22.55
2022-10-17T09:04:53.495Z,23.13
2022-10-17T09:07:37.169Z,23.14
2022-10-17T09:10:31.321Z,23.07
2022-10-17T09:13:18.380Z,23.85
2022-10-17T09:15:50.635Z,24.50
2022-10-17T09:18:27.100Z,24.18
2022-10-17T09:21:00.769Z,24.78
2022-10-17T09:23:53.227Z,23.68
2022-10-17T09:26:26.711Z,23.34
2022-10-17T09:28:59.287Z,23.30
2022-10-17T09:31:34.123Z,23.81
2022-10-17T09:34:03.333Z,24.44
2022-10-17T09:36:36.965Z,24.67
2022-10-17T09:39:15.566Z,24.54
2022-10-17T09:41:48.432Z,24.72
2022-10-17T09:44:51.350Z,25.22
2022-10-17T09:47:38.061Z,25.86
2022-10-17T09:50:17.963Z,26.25
2022-10-17T09:52:47.776Z,25.67
2022-10-17T09:55:34.075Z,25.50
2022-10-17T09:58:07.260Z,26.25
2022-10-17T10:00:37.900Z,26.90
2022-10-17T10:03:20.206Z,27.33
2022-10-17T10:06:06.341Z,26.82
2022-10-17T10:08:37.373Z,26.47
2022-10-17T10:11:13.507Z,27.38
2022-10-17T10:13:41.075Z,26.97
2022-10-17T10:16:33.159Z,27.66
2022-10-17T10:18:59.974Z,28.96
2022-10-17T10:21:27.888Z,29.54
2022-10-17T10:24:09.925Z,29.22
2022-10-17T10:26:50.649Z,27.48
2022-10-17T10:29:35.241Z,27.90
2022-10-17T10:32:09.613Z,28.81
2022-10-17T10:34:42.355Z,29.11
2022-10-17T10:37:30.951Z,30.04
2022-10-17T10:40:05.051Z,30.27
2022-10-17T10:42:40.243Z,29.75
2022-10-17T10:45:46.505Z,28.48
2022-10-17T10:48:30.402Z,29.67
2022-10-17T10:51:21.627Z,28.73
2022-10-17T10:54:32.992Z,30.39
2022-10-17T10:57:04.918Z,30.75
2022-10-17T11:00:04.254Z,28.95
2022-10-17T11:02:45.600Z,30.34
2022-10-17T11:05:17.711Z,30.73
2022-10-17T11:08:13.630Z,30.67
2022-10-17T11:11:05.400Z,31.30
2022-10-17T11:13:39.697Z,31.50
2022-10-17T11:16:35.366Z,31.64
2022-10-17T11:19:29.548Z,32.39
2022-10-17T11:22:39.562Z,32.95
2022-10-17T11:25:28.013Z,33.41
2022-10-17T11:27:54.962Z,31.77
2022-10-17T11:30:26.241Z,30.93
2022-10-17T11:32:59.565Z,32.24
2022-10-17T11:35:43.053Z,30.94
2022-10-17T11:38:41.921Z,31.94
2022-10-17T11:41:17.484Z,33.44
2022-10-17T11:44:16.614Z,34.66
2022-10-17T11:46:49.522Z,35.70
2022-10-17T11:49:28.852Z,34.80
2022-10-17T11:52:11.087Z,35.11
2022-10-17T11:54:49.117Z,36.63
2022-10-17T11:57:49.380Z,36.23
2022-10-17T12:01:06.612Z,36.24
2022-10-17T12:04:14.006Z,36.72
2022-10-17T12:06:55.814Z,32.95
2022-10-17T12:10:07.247Z,33.81
2022-10-17T12:12:35.730Z,34.74
2022-10-17T12:15:20.816Z,35.50
2022-10-17T12:18:02.293Z,33.89
2022-10-17T12:20:35.741Z,33.95
2022-10-17T12:23:19.482Z,35.46
2022-10-17T12:26:01.601Z,37.44
2022-10-17T12:28:37.217Z,37.99
2022-10-17T12:31:28.397Z,38.41
2022-10-17T12:34:02.120Z,38.08
2022-10-17T12:36:28.887Z,37.92
2022-10-17T12:39:01.471Z,37.71
2022-10-17T12:41:40.404Z,38.90
2022-10-17T12:44:28.750Z,39.23
2022-10-17T12:46:56.904Z,39.50
2022-10-17T12:49:52.009Z,39.42
2022-10-17T12:52:35.035Z,39.89
2022-10-17T12:55:13.466Z,39.72
2022-10-17T12:58:12.871Z,39.84
2022-10-17T13:01:22.370Z,40.08
2022-10-17T13:03:49.237Z,40.82
2022-10-17T13:06:29.544Z,40.04
2022-10-17T13:09:05.652Z,37.81
2022-10-17T13:11:35.208Z,38.16
2022-10-17T13:14:10.623Z,38.97
2022-10-17T13:16:41.026Z,39.59
2022-10-17T13:19:18.640Z,39.89
2022-10-17T13:21:56.075Z,40.17
2022-10-17T13:24:38.391Z,37.31
2022-10-17T13:27:21.863Z,39.18
2022-10-17T13:29:48.985Z,40.36
2022-10-17T13:32:15.885Z,42.35
2022-10-17T13:34:43.214Z,41.56
2022-10-17T13:37:15.706Z,40.28
2022-10-17T13:39:54.859Z,40.59
2022-10-17T13:42:30.415Z,40.65
2022-10-17T13:44:58.494Z,40.61
2022-10-17T13:47:29.885Z,41.35
2022-10-17T13:49:58.429Z,38.97
2022-10-17T13:52:29.771Z,39.12
2022-10-17T13:55:17.548Z,38.91
2022-10-17T13:57:44.629Z,38.81
2022-10-17T14:00:20.854Z,39.16
2022-10-17T14:02:48.516Z,38.53
2022-10-17T14:05:21.154Z,37.95
2022-10-17T14:08:12.019Z,37.61
2022-10-17T14:10:43.005Z,37.72
2022-10-17T14:13:21.597Z,36.96
2022-10-17T14:15:49.022Z,35.39
2022-10-17T14:18:22.888Z,34.43
2022-10-17T14:23:41.948Z,34.99
2022-10-17T14:26:23.786Z,35.07
2022-10-17T14:29:29.725Z,35.25
2022-10-17T14:32:08.432Z,35.97
2022-10-17T14:34:39.396Z,36.71
2022-10-17T14:37:13.065Z,37.29
2022-10-17T14:39:40.063Z,38.03
2022-10-17T14:42:07.122Z,38.84
2022-10-17T14:44:36.468Z,39.56
2022-10-17T14:47:30.677Z,39.80
2022-10-17T14:50:10.009Z,38.25
2022-10-17T14:52:38.811Z,37.89
2022-10-17T14:55:27.464Z,37.18
2022-10-17T14:57:54.465Z,36.79
2022-10-17T15:00:22.908Z,36.90
2022-10-17T15:02:51.600Z,36.77
2022-10-17T15:05:19.596Z,35.02
2022-10-17T15:07:46.451Z,32.99
2022-10-17T15:10:34.146Z,31.45
2022-10-17T15:13:26.504Z,30.43
2022-10-17T15:15:51.932Z,29.72
2022-10-17T15:18:19.189Z,29.03
2022-10-17T15:20:45.996Z,28.47
2022-10-17T15:23:12.806Z,27.62
2022-10-17T15:25:40.009Z,27.17
2022-10-17T15:28:06.856Z,26.80
2022-10-17T15:30:36.517Z,26.60
2022-10-17T15:33:03.803Z,26.90
2022-10-17T15:35:30.980Z,26.70
2022-10-17T15:37:57.810Z,26.33
2022-10-17T15:40:28.813Z,25.93
2022-10-17T15:42:56.385Z,25.82
2022-10-17T15:45:24.185Z,25.61
2022-10-17T15:47:54.831Z,25.17
2022-10-17T15:50:22.134Z,24.50
2022-10-17T15:52:52.981Z,24.07
2022-10-17T15:55:20.114Z,23.91
2022-10-17T15:57:48.337Z,23.40
2022-10-17T16:00:18.169Z,23.45
2022-10-17T16:02:46.167Z,23.48
2022-10-17T16:05:25.597Z,23.34
2022-10-17T16:07:53.915Z,23.30
2022-10-17T16:10:22.672Z,23.25
2022-10-17T16:12:50.290Z,23.12
2022-10-17T16:15:22.908Z,23.08
2022-10-17T16:17:55.457Z,22.96
2022-10-17T16:20:24.180Z,22.93
2022-10-17T16:22:51.479Z,22.82
2022-10-17T16:25:25.088Z,22.55
2022-10-17T16:27:55.353Z,22.50
2022-10-17T16:30:24.661Z,22.36
2022-10-17T16:32:52.942Z,22.26
2022-10-17T16:35:24.817Z,22.11
2022-10-17T16:37:51.664Z,21.98
2022-10-17T16:40:19.098Z,21.90
2022-10-17T16:42:46.203Z,21.73
2022-10-17T16:45:19.802Z,21.28
2022-10-17T16:47:47.139Z,21.31
2022-10-17T16:50:14.890Z,21.26
2022-10-17T16:52:42.302Z,21.16
2022-10-17T16:55:09.956Z,21.16
2022-10-17T16:57:36.846Z,21.12
2022-10-17T17:00:06.303Z,21.09
2022-10-17T17:02:33.392Z,21.08
2022-10-17T17:05:00.473Z,20.97
2022-10-17T17:07:29.524Z,20.88
2022-10-17T17:09:56.751Z,20.85
2022-10-17T17:12:23.961Z,20.79
2022-10-17T17:14:50.846Z,20.70
2022-10-17T17:17:30.317Z,20.50
2022-10-17T17:20:06.448Z,20.28
2022-10-17T17:22:33.321Z,20.11
2022-10-17T17:25:00.150Z,20.07
2022-10-17T17:27:30.406Z,20.11
2022-10-17T17:29:57.434Z,20.11
2022-10-17T17:32:24.197Z,19.96
2022-10-17T17:34:51.013Z,19.84
2022-10-17T17:37:17.925Z,19.79
2022-10-17T17:39:44.786Z,19.74
2022-10-17T17:42:11.569Z,19.72
2022-10-17T17:44:38.365Z,19.59
2022-10-17T17:47:05.390Z,19.47
2022-10-17T17:49:32.213Z,19.34
2022-10-17T17:51:59.270Z,19.02
2022-10-17T17:54:26.110Z,18.96
2022-10-17T17:56:52.916Z,19.01
2022-10-17T17:59:20.323Z,18.92
2022-10-17T18:01:47.321Z,18.89
2022-10-17T18:04:16.397Z,18.91
2022-10-17T18:06:43.577Z,19.17
2022-10-17T18:09:11.052Z,19.21
2022-10-17T18:11:38.517Z,19.22
2022-10-17T18:14:10.354Z,18.85
2022-10-17T18:16:37.802Z,18.54
2022-10-17T18:19:08.775Z,18.49
2022-10-17T18:21:37.119Z,18.40
2022-10-17T18:24:04.966Z,18.40
2022-10-17T18:26:32.315Z,18.34
2022-10-17T18:28:59.203Z,18.18
2022-10-17T18:31:31.904Z,18.15
2022-10-17T18:34:02.528Z,18.09
2022-10-17T18:36:31.245Z,18.00
2022-10-17T18:39:00.361Z,17.96
2022-10-17T18:41:27.716Z,18.01
2022-10-17T18:43:56.282Z,17.91
2022-10-17T18:46:30.796Z,17.79
2022-10-17T18:48:58.173Z,17.71
2022-10-17T18:51:26.564Z,17.70
2022-10-17T18:53:56.266Z,17.60
2022-10-17T18:56:23.504Z,17.57
2022-10-17T18:58:51.364Z,17.69
2022-10-17T19:01:21.249Z,17.44
2022-10-17T19:03:52.499Z,17.40
2022-10-17T19:06:23.873Z,17.55
2022-10-17T19:08:50.830Z,17.58
2022-10-17T19:11:24.103Z,17.53
2022-10-17T19:13:52.187Z,17.50
2022-10-17T19:16:28.326Z,17.40
2022-10-17T19:19:04.725Z,17.51
2022-10-17T19:21:31.601Z,17.21
2022-10-17T19:24:02.199Z,17.13
2022-10-17T19:26:32.542Z,17.23
2022-10-17T19:29:00.873Z,17.14
2022-10-17T19:31:29.923Z,17.26
2022-10-17T19:33:57.330Z,16.92
2022-10-17T19:36:30.712Z,16.95
2022-10-17T19:39:04.781Z,17.16
2022-10-17T19:41:32.759Z,17.12
2022-10-17T19:44:00.833Z,17.07
2022-10-17T19:46:30.760Z,17.06
2022-10-17T19:48:58.266Z,17.07
2022-10-17T19:51:26.274Z,17.12
2022-10-17T19:53:55.943Z,17.05
2022-10-17T19:56:24.970Z,17.07
2022-10-17T19:58:53.945Z,17.08
2022-10-17T20:01:24.296Z,17.12
2022-10-17T20:03:52.325Z,17.04
2022-10-17T20:06:19.806Z,17.04
2022-10-17T20:08:46.924Z,16.99
2022-10-17T20:11:22.407Z,16.98
2022-10-17T20:13:49.564Z,16.89
2022-10-17T20:16:23.676Z,16.91
2022-10-17T20:18:54.474Z,16.91
2022-10-17T20:21:27.793Z,16.82
2022-10-17T20:23:55.121Z,16.78
2022-10-17T20:26:37.031Z,16.66
2022-10-17T20:29:11.821Z,16.65
2022-10-17T20:31:40.840Z,16.62
2022-10-17T20:34:07.866Z,16.61
2022-10-17T20:36:37.384Z,16.55
2022-10-17T20:39:05.760Z,16.47
2022-10-17T20:41:33.017Z,16.40
2022-10-17T20:43:59.860Z,16.44
2022-10-17T20:46:52.705Z,16.44
2022-10-17T20:49:19.153Z,16.35
2022-10-17T20:51:46.341Z,16.31
2022-10-17T20:54:13.406Z,16.37
2022-10-17T20:56:40.462Z,16.34
2022-10-17T20:59:17.158Z,16.45
2022-10-17T21:01:45.417Z,16.49
2022-10-17T21:04:44.040Z,16.39
2022-10-17T21:07:00.675Z,16.34
2022-10-17T21:09:27.580Z,16.36
2022-10-17T21:11:55.858Z,16.43
2022-10-17T21:14:24.716Z,16.46
2022-10-17T21:16:54.657Z,16.42
2022-10-17T21:19:21.804Z,16.38
2022-10-17T21:21:48.805Z,16.30
2022-10-17T21:24:17.958Z,16.28
2022-10-17T21:26:46.593Z,16.29
2022-10-17T21:29:14.478Z,16.46
2022-10-17T21:31:43.874Z,16.65
2022-10-17T21:34:18.612Z,16.78
2022-10-17T21:36:45.506Z,16.83
2022-10-17T21:39:14.294Z,16.76
2022-10-17T21:41:42.172Z,16.66
2022-10-17T21:44:24.194Z,16.50
2022-10-17T21:46:51.701Z,16.31
2022-10-17T21:49:23.646Z,16.28
2022-10-17T21:51:52.415Z,16.18
2022-10-17T21:54:21.429Z,16.11
2022-10-17T21:56:48.440Z,16.13
2022-10-17T21:59:15.490Z,16.11
2022-10-17T22:01:45.020Z,16.10
2022-10-17T22:04:16.027Z,16.10
2022-10-17T22:06:45.221Z,16.10
2022-10-17T22:09:22.713Z,16.03
2022-10-17T22:11:56.244Z,15.98
2022-10-17T22:14:25.348Z,16.01
2022-10-17T22:16:52.217Z,15.93
2022-10-17T22:19:24.042Z,15.89
2022-10-17T22:21:51.256Z,15.84
2022-10-17T22:26:48.466Z,15.81
2022-10-17T22:29:15.301Z,15.84
2022-10-17T22:31:42.497Z,15.83
2022-10-17T22:34:13.236Z,15.83
2022-10-17T22:36:40.678Z,15.68
2022-10-17T22:39:07.596Z,15.53
2022-10-17T22:41:34.630Z,15.49
2022-10-17T22:44:01.681Z,15.40
2022-10-17T22:46:29.070Z,15.37
2022-10-17T22:48:55.912Z,15.29
2022-10-17T22:53:54.786Z,15.22
2022-10-17T22:56:22.748Z,15.25
2022-10-17T22:58:50.168Z,15.24
2022-10-17T23:01:20.675Z,15.27
2022-10-17T23:03:48.189Z,15.27
2022-10-17T23:06:15.208Z,15.24
2022-10-17T23:08:42.608Z,15.27
2022-10-17T23:11:09.813Z,15.22
2022-10-17T23:13:37.345Z,15.18
2022-10-17T23:16:04.748Z,15.05
2022-10-17T23:21:03.338Z,14.95
2022-10-17T23:23:30.172Z,14.96
2022-10-17T23:26:07.927Z,14.99
2022-10-17T23:28:35.620Z,15.01
2022-10-17T23:31:20.938Z,14.97
2022-10-17T23:33:49.629Z,14.94
2022-10-17T23:36:19.238Z,14.85
2022-10-17T23:38:47.555Z,14.76
2022-10-17T23:41:14.899Z,14.69
2022-10-17T23:43:41.734Z,14.66
2022-10-17T23:46:09.323Z,14.65
2022-10-17T23:48:36.244Z,14.66
2022-10-17T23:51:03.618Z,14.65
2022-10-17T23:53:30.753Z,14.67
2022-10-17T23:55:57.531Z,14.65
2022-10-17T23:58:24.393Z,14.64
